createdAt,value
2022-08-02T00:00:15.286Z,22.40
2022-08-02T00:02:42.202Z,22.41
2022-08-02T00:05:08.804Z,22.40
2022-08-02T00:07:40.880Z,22.40
2022-08-02T00:10:08.791Z,22.40
2022-08-02T00:12:35.196Z,22.39
2022-08-02T00:15:01.762Z,22.40
2022-08-02T00:17:28.270Z,22.39
2022-08-02T00:19:54.680Z,22.40
2022-08-02T00:22:21.115Z,22.39
2022-08-02T00:24:47.486Z,22.39
2022-08-02T00:27:13.919Z,22.39
2022-08-02T00:29:51.977Z,22.38
2022-08-02T00:32:19.560Z,22.38
2022-08-02T00:34:46.069Z,22.39
2022-08-02T00:37:12.459Z,22.38
2022-08-02T00:39:40.273Z,22.38
2022-08-02T00:42:06.808Z,22.38
2022-08-02T00:44:33.209Z,22.37
2022-08-02T00:46:59.674Z,22.38
2022-08-02T00:49:26.132Z,22.37
2022-08-02T00:51:52.695Z,22.38
2022-08-02T00:54:19.614Z,22.38
2022-08-02T00:56:49.736Z,22.37
2022-08-02T00:59:17.818Z,22.37
2022-08-02T01:01:56.767Z,22.37
2022-08-02T01:04:30.077Z,22.37
2022-08-02T01:06:58.470Z,22.37
2022-08-02T01:09:25.041Z,22.35
2022-08-02T01:11:51.428Z,22.36
2022-08-02T01:14:18.029Z,22.35
2022-08-02T01:16:52.701Z,22.34
2022-08-02T01:19:22.035Z,22.35
2022-08-02T01:22:06.150Z,22.34
2022-08-02T01:27:21.258Z,22.35
2022-08-02T01:29:51.582Z,22.34
2022-08-02T01:32:19.373Z,22.35
2022-08-02T01:34:55.984Z,22.34
2022-08-02T01:37:42.636Z,22.34
2022-08-02T01:40:10.968Z,22.34
2022-08-02T01:42:38.308Z,22.33
2022-08-02T01:45:06.364Z,22.33
2022-08-02T01:47:35.478Z,22.33
2022-08-02T01:50:02.642Z,22.33
2022-08-02T01:52:30.847Z,22.33
2022-08-02T01:55:06.414Z,22.32
2022-08-02T01:57:39.185Z,22.31
2022-08-02T02:00:10.252Z,22.32
2022-08-02T02:02:37.718Z,22.30
2022-08-02T02:05:05.935Z,22.32
2022-08-02T02:07:33.678Z,22.33
2022-08-02T02:10:00.952Z,22.30
2022-08-02T02:12:27.391Z,22.32
2022-08-02T02:14:55.106Z,22.31
2022-08-02T02:17:57.179Z,22.30
2022-08-02T02:20:13.390Z,22.30
2022-08-02T02:22:40.408Z,22.31
2022-08-02T02:25:08.013Z,22.29
2022-08-02T02:27:39.800Z,22.29
2022-08-02T02:30:07.105Z,22.29
2022-08-02T02:32:34.729Z,22.29
2022-08-02T02:35:03.777Z,22.28
2022-08-02T02:37:31.748Z,22.28
2022-08-02T02:39:58.231Z,22.28
2022-08-02T02:42:28.319Z,22.28
2022-08-02T02:44:55.263Z,22.27
2022-08-02T02:47:22.532Z,22.29
2022-08-02T02:50:07.853Z,22.27
2022-08-02T02:52:35.054Z,22.27
2022-08-02T02:55:02.080Z,22.26
2022-08-02T02:57:28.588Z,22.27
2022-08-02T02:59:55.190Z,22.27
2022-08-02T03:02:21.769Z,22.27
2022-08-02T03:04:57.404Z,22.26
2022-08-02T03:07:24.794Z,22.26
2022-08-02T03:12:20.101Z,22.25
2022-08-02T03:14:49.383Z,22.25
2022-08-02T03:17:16.590Z,22.25
2022-08-02T03:19:43.026Z,22.26
2022-08-02T03:22:09.974Z,22.25
2022-08-02T03:24:36.641Z,22.25
2022-08-02T03:27:03.088Z,22.25
2022-08-02T03:29:34.310Z,22.24
2022-08-02T03:32:01.166Z,22.24
2022-08-02T03:34:27.598Z,22.24
2022-08-02T03:36:55.903Z,22.24
2022-08-02T03:39:23.071Z,22.24
2022-08-02T03:41:49.791Z,22.24
2022-08-02T03:44:17.801Z,22.22
2022-08-02T03:46:44.603Z,22.22
2022-08-02T03:49:12.702Z,22.25
2022-08-02T03:51:39.283Z,22.20
2022-08-02T03:54:06.132Z,22.24
2022-08-02T03:59:09.818Z,22.21
2022-08-02T04:01:36.293Z,22.22
2022-08-02T04:04:02.710Z,22.20
2022-08-02T04:08:55.405Z,22.21
2022-08-02T04:11:33.681Z,22.20
2022-08-02T04:14:08.558Z,22.20
2022-08-02T04:16:37.378Z,22.20
2022-08-02T04:19:05.549Z,22.20
2022-08-02T04:21:50.195Z,22.20
2022-08-02T04:24:24.388Z,22.19
2022-08-02T04:26:51.650Z,22.19
2022-08-02T04:29:18.601Z,22.19
2022-08-02T04:31:45.589Z,22.20
2022-08-02T04:34:15.127Z,22.20
2022-08-02T04:36:42.364Z,22.19
2022-08-02T04:39:08.825Z,22.19
2022-08-02T04:41:41.043Z,22.18
2022-08-02T04:44:10.801Z,22.19
2022-08-02T04:46:37.221Z,22.18
2022-08-02T04:49:03.750Z,22.18
2022-08-02T04:51:37.958Z,22.18
2022-08-02T04:54:06.402Z,22.18
2022-08-02T04:56:36.203Z,22.18
2022-08-02T04:59:02.596Z,22.17
2022-08-02T05:01:29.378Z,22.17
2022-08-02T05:03:55.821Z,22.17
2022-08-02T05:06:22.227Z,22.17
2022-08-02T05:08:52.500Z,22.17
2022-08-02T05:11:19.837Z,22.17
2022-08-02T05:13:58.052Z,22.16
2022-08-02T05:16:31.018Z,22.17
2022-08-02T05:18:58.436Z,22.16
2022-08-02T05:21:24.844Z,22.16
2022-08-02T05:23:51.253Z,22.16
2022-08-02T05:26:17.670Z,22.17
2022-08-02T05:28:44.085Z,22.17
2022-08-02T05:31:12.525Z,22.17
2022-08-02T05:33:39.952Z,22.17
2022-08-02T05:36:06.608Z,22.17
2022-08-02T05:38:36.935Z,22.18
2022-08-02T05:41:03.865Z,22.18
2022-08-02T05:43:30.391Z,22.17
2022-08-02T05:45:56.944Z,22.19
2022-08-02T05:48:27.683Z,22.19
2022-08-02T05:51:02.775Z,22.19
2022-08-02T05:53:45.383Z,22.19
2022-08-02T05:56:33.768Z,22.19
2022-08-02T05:59:04.067Z,22.20
2022-08-02T06:01:34.559Z,22.20
2022-08-02T06:04:03.956Z,22.21
2022-08-02T06:06:32.306Z,22.21
2022-08-02T06:09:00.176Z,22.22
2022-08-02T06:11:34.072Z,22.22
2022-08-02T06:14:00.475Z,22.24
2022-08-02T06:16:32.194Z,22.22
2022-08-02T06:19:00.197Z,22.22
2022-08-02T06:24:13.414Z,22.26
2022-08-02T06:26:41.277Z,22.27
2022-08-02T06:29:07.945Z,22.29
2022-08-02T06:31:35.469Z,22.29
2022-08-02T06:34:02.304Z,22.32
2022-08-02T06:36:31.788Z,22.32
2022-08-02T06:38:58.181Z,22.34
2022-08-02T06:41:24.936Z,22.35
2022-08-02T06:43:55.056Z,22.37
2022-08-02T06:46:49.221Z,22.38
2022-08-02T06:49:08.530Z,22.39
2022-08-02T06:51:35.075Z,22.40
2022-08-02T06:54:01.504Z,22.41
2022-08-02T06:56:27.879Z,22.42
2022-08-02T06:58:54.343Z,22.44
2022-08-02T07:01:20.777Z,22.44
2022-08-02T07:03:47.274Z,22.45
2022-08-02T07:06:13.830Z,22.46
2022-08-02T07:08:40.356Z,22.46
2022-08-02T07:11:08.039Z,22.47
2022-08-02T07:13:39.385Z,22.48
2022-08-02T07:16:07.324Z,22.47
2022-08-02T07:18:34.438Z,22.48
2022-08-02T07:21:00.841Z,22.50
2022-08-02T07:23:27.281Z,22.50
2022-08-02T07:26:03.168Z,22.51
2022-08-02T07:28:30.761Z,22.50
2022-08-02T07:30:57.171Z,22.51
2022-08-02T07:33:38.059Z,22.52
2022-08-02T07:36:08.185Z,22.53
2022-08-02T07:38:36.190Z,22.54
2022-08-02T07:41:04.415Z,22.55
2022-08-02T07:43:31.213Z,22.56
2022-08-02T07:46:00.622Z,22.59
2022-08-02T07:48:27.731Z,22.60
2022-08-02T07:50:54.246Z,22.62
2022-08-02T07:53:20.651Z,22.61
2022-08-02T07:56:07.060Z,22.62
2022-08-02T07:58:33.479Z,22.62
2022-08-02T08:00:59.922Z,22.61
2022-08-02T08:03:26.337Z,22.61
2022-08-02T08:05:54.511Z,22.62
2022-08-02T08:08:20.968Z,22.63
2022-08-02T08:10:47.730Z,22.65
2022-08-02T08:13:15.266Z,22.65
2022-08-02T08:15:41.770Z,22.65
2022-08-02T08:18:18.047Z,22.66
2022-08-02T08:20:44.458Z,22.66
2022-08-02T08:23:10.898Z,22.70
2022-08-02T08:25:39.768Z,22.71
2022-08-02T08:28:07.943Z,22.71
2022-08-02T08:30:34.396Z,22.73
2022-08-02T08:33:00.839Z,22.74
2022-08-02T08:35:27.238Z,22.74
2022-08-02T08:37:53.708Z,22.74
2022-08-02T08:40:20.285Z,22.74
2022-08-02T08:42:46.795Z,22.76
2022-08-02T08:45:13.252Z,22.74
2022-08-02T08:47:40.990Z,22.75
2022-08-02T08:50:13.122Z,22.76
2022-08-02T08:52:53.560Z,22.75
2022-08-02T08:55:22.499Z,22.75
2022-08-02T08:57:49.022Z,22.76
2022-08-02T09:00:16.959Z,22.76
2022-08-02T09:02:44.109Z,22.77
2022-08-02T09:05:11.483Z,22.80
2022-08-02T09:07:37.940Z,22.80
2022-08-02T09:10:22.857Z,22.80
2022-08-02T09:13:05.761Z,22.80
2022-08-02T09:16:11.600Z,22.80
2022-08-02T09:18:40.385Z,22.81
2022-08-02T09:21:10.889Z,22.79
2022-08-02T09:23:47.547Z,22.79
2022-08-02T09:26:15.464Z,22.78
2022-08-02T09:28:43.386Z,22.78
2022-08-02T09:31:14.054Z,22.79
2022-08-02T09:33:41.920Z,22.78
2022-08-02T09:36:08.692Z,22.78
2022-08-02T09:38:36.077Z,22.79
2022-08-02T09:41:02.955Z,22.78
2022-08-02T09:44:03.263Z,22.80
2022-08-02T09:46:32.313Z,22.78
2022-08-02T09:49:02.702Z,22.79
2022-08-02T09:51:30.210Z,22.80
2022-08-02T09:54:08.022Z,22.79
2022-08-02T09:56:43.317Z,22.79
2022-08-02T09:59:10.057Z,22.80
2022-08-02T10:01:39.033Z,22.81
2022-08-02T10:04:07.866Z,22.83
2022-08-02T10:06:34.763Z,22.84
2022-08-02T10:09:01.574Z,22.85
2022-08-02T10:11:28.494Z,22.85
2022-08-02T10:13:55.527Z,22.85
2022-08-02T10:16:23.763Z,22.86
2022-08-02T10:18:51.638Z,22.87
2022-08-02T10:21:21.136Z,22.89
2022-08-02T10:23:49.008Z,22.91
2022-08-02T10:26:19.190Z,22.91
2022-08-02T10:28:49.648Z,22.92
2022-08-02T10:31:19.197Z,22.94
2022-08-02T10:33:50.154Z,22.95
2022-08-02T10:36:18.118Z,22.97
2022-08-02T10:38:45.613Z,22.97
2022-08-02T10:41:12.402Z,22.96
2022-08-02T10:43:38.895Z,22.97
2022-08-02T10:46:20.662Z,22.98
2022-08-02T10:49:18.439Z,22.98
2022-08-02T10:52:01.657Z,22.98
2022-08-02T10:54:32.111Z,22.99
2022-08-02T10:56:59.452Z,22.97
2022-08-02T10:59:28.026Z,22.98
2022-08-02T11:02:01.965Z,22.98
2022-08-02T11:04:29.930Z,23.02
2022-08-02T11:07:08.592Z,23.02
2022-08-02T11:09:35.188Z,23.05
2022-08-02T11:12:03.501Z,23.06
2022-08-02T11:14:30.571Z,23.11
2022-08-02T11:16:56.988Z,23.13
2022-08-02T11:19:24.533Z,23.16
2022-08-02T11:22:04.473Z,23.17
2022-08-02T11:24:31.264Z,23.18
2022-08-02T11:26:58.555Z,23.18
2022-08-02T11:29:39.044Z,23.18
2022-08-02T11:32:07.102Z,23.18
2022-08-02T11:34:37.713Z,23.19
2022-08-02T11:37:04.973Z,23.22
2022-08-02T11:39:31.764Z,23.26
2022-08-02T11:41:59.507Z,23.30
2022-08-02T11:44:26.861Z,23.33
2022-08-02T11:46:56.047Z,23.34
2022-08-02T11:49:22.723Z,23.34
2022-08-02T11:51:54.255Z,23.34
2022-08-02T11:54:28.691Z,23.35
2022-08-02T11:56:55.316Z,23.36
2022-08-02T11:59:22.121Z,23.38
2022-08-02T12:01:48.898Z,23.40
2022-08-02T12:04:22.411Z,23.41
2022-08-02T12:06:59.505Z,23.40
2022-08-02T12:09:27.197Z,23.39
2022-08-02T12:11:53.991Z,23.42
2022-08-02T12:14:20.724Z,23.43
2022-08-02T12:17:06.707Z,23.46
2022-08-02T12:19:33.888Z,23.47
2022-08-02T12:22:14.111Z,23.48
2022-08-02T12:24:41.952Z,23.51
2022-08-02T12:27:08.807Z,23.52
2022-08-02T12:29:58.004Z,23.51
2022-08-02T12:32:25.815Z,23.49
2022-08-02T12:35:02.808Z,23.49
2022-08-02T12:37:29.402Z,23.49
2022-08-02T12:39:55.837Z,23.48
2022-08-02T12:42:22.362Z,23.51
2022-08-02T12:44:56.360Z,23.54
2022-08-02T12:47:22.789Z,23.51
2022-08-02T12:50:08.087Z,23.51
2022-08-02T12:52:34.634Z,23.52
2022-08-02T12:55:01.219Z,23.53
2022-08-02T12:57:27.614Z,23.57
2022-08-02T12:59:54.082Z,23.62
2022-08-02T13:02:21.534Z,23.63
2022-08-02T13:04:50.099Z,23.64
2022-08-02T13:07:17.005Z,23.64
2022-08-02T13:09:48.261Z,23.64
2022-08-02T13:12:15.180Z,23.64
2022-08-02T13:14:42.728Z,23.63
2022-08-02T13:17:09.811Z,23.64
2022-08-02T13:19:36.934Z,23.66
2022-08-02T13:22:03.883Z,23.67
2022-08-02T13:24:40.547Z,23.68
2022-08-02T13:27:17.885Z,23.69
2022-08-02T13:29:44.281Z,23.70
2022-08-02T13:32:11.006Z,23.72
2022-08-02T13:34:37.630Z,23.73
2022-08-02T13:37:04.468Z,23.75
2022-08-02T13:39:30.897Z,23.78
2022-08-02T13:41:57.324Z,23.82
2022-08-02T13:44:23.811Z,23.84
2022-08-02T13:46:50.239Z,23.89
2022-08-02T13:49:20.001Z,23.91
2022-08-02T13:51:49.962Z,23.92
2022-08-02T13:54:17.197Z,23.88
2022-08-02T13:56:43.760Z,23.89
2022-08-02T13:59:55.074Z,23.92
2022-08-02T14:01:57.488Z,23.97
2022-08-02T14:04:24.384Z,23.95
2022-08-02T14:06:51.136Z,23.98
2022-08-02T14:09:17.540Z,23.97
2022-08-02T14:11:44.683Z,23.97
2022-08-02T14:14:16.719Z,23.97
2022-08-02T14:16:44.381Z,23.96
2022-08-02T14:19:15.881Z,23.98
2022-08-02T14:21:46.785Z,24.02
2022-08-02T14:24:14.364Z,24.07
2022-08-02T14:26:40.735Z,24.06
2022-08-02T14:29:07.161Z,24.04
2022-08-02T14:31:33.670Z,24.02
2022-08-02T14:34:00.097Z,24.04
2022-08-02T14:36:27.414Z,24.03
2022-08-02T14:38:54.843Z,24.01
2022-08-02T14:41:21.305Z,24.02
2022-08-02T14:44:06.188Z,24.01
2022-08-02T14:46:33.420Z,24.02
2022-08-02T14:49:03.749Z,24.02
2022-08-02T14:51:31.039Z,24.01
2022-08-02T14:54:03.289Z,24.01
2022-08-02T14:56:30.472Z,24.03
2022-08-02T14:58:56.938Z,24.04
2022-08-02T15:01:25.936Z,24.09
2022-08-02T15:03:52.919Z,24.11
2022-08-02T15:06:19.474Z,24.10
2022-08-02T15:08:45.986Z,24.10
2022-08-02T15:11:12.385Z,24.10
2022-08-02T15:13:42.277Z,24.07
2022-08-02T15:16:09.540Z,24.08
2022-08-02T15:18:36.145Z,24.08
2022-08-02T15:21:07.963Z,24.09
2022-08-02T15:23:48.926Z,24.09
2022-08-02T15:26:15.352Z,24.11
2022-08-02T15:28:41.770Z,24.11
2022-08-02T15:31:08.157Z,24.12
2022-08-02T15:33:34.676Z,24.11
2022-08-02T15:36:01.196Z,24.09
2022-08-02T15:38:27.621Z,24.08
2022-08-02T15:40:54.081Z,24.09
2022-08-02T15:43:21.532Z,24.09
2022-08-02T15:45:47.917Z,24.10
2022-08-02T15:48:14.362Z,24.11
2022-08-02T15:50:40.795Z,24.12
2022-08-02T15:53:07.253Z,24.15
2022-08-02T15:55:39.838Z,24.16
2022-08-02T15:58:22.293Z,24.15
2022-08-02T16:00:49.130Z,24.13
2022-08-02T16:03:15.581Z,24.13
2022-08-02T16:05:42.017Z,24.10
2022-08-02T16:08:08.418Z,24.08
2022-08-02T16:10:34.887Z,24.04
2022-08-02T16:13:19.772Z,24.02
2022-08-02T16:15:46.160Z,24.01
2022-08-02T16:18:12.542Z,23.99
2022-08-02T16:20:38.954Z,23.97
2022-08-02T16:23:05.403Z,23.96
2022-08-02T16:25:31.823Z,23.96
2022-08-02T16:28:06.439Z,23.93
2022-08-02T16:30:34.608Z,23.92
2022-08-02T16:33:01.103Z,23.91
2022-08-02T16:35:28.324Z,23.90
2022-08-02T16:37:54.938Z,23.89
2022-08-02T16:40:21.937Z,23.87
2022-08-02T16:42:48.785Z,23.87
2022-08-02T16:45:17.266Z,23.85
2022-08-02T16:47:56.442Z,23.85
2022-08-02T16:50:28.006Z,23.85
2022-08-02T16:52:55.974Z,23.84
2022-08-02T16:55:22.386Z,23.83
2022-08-02T16:57:50.099Z,23.82
2022-08-02T17:00:17.270Z,23.81
2022-08-02T17:02:44.173Z,23.80
2022-08-02T17:05:14.561Z,23.77
2022-08-02T17:08:07.840Z,23.76
2022-08-02T17:10:29.311Z,23.74
2022-08-02T17:13:11.049Z,23.73
2022-08-02T17:16:01.291Z,23.71
2022-08-02T17:18:26.565Z,23.71
2022-08-02T17:20:53.184Z,23.70
2022-08-02T17:23:19.606Z,23.68
2022-08-02T17:25:52.298Z,23.68
2022-08-02T17:28:19.227Z,23.67
2022-08-02T17:30:45.650Z,23.66
2022-08-02T17:33:12.047Z,23.64
2022-08-02T17:35:43.370Z,23.66
2022-08-02T17:38:26.403Z,23.63
2022-08-02T17:40:54.761Z,23.62
2022-08-02T17:43:21.574Z,23.61
2022-08-02T17:46:00.077Z,23.59
2022-08-02T17:48:37.054Z,23.60
2022-08-02T17:51:03.979Z,23.58
2022-08-02T17:53:36.398Z,23.58
2022-08-02T17:56:02.991Z,23.56
2022-08-02T17:58:33.085Z,23.56
2022-08-02T18:00:59.984Z,23.56
2022-08-02T18:03:26.450Z,23.54
2022-08-02T18:05:55.282Z,23.54
2022-08-02T18:08:23.197Z,23.52
2022-08-02T18:10:50.524Z,23.50
2022-08-02T18:13:17.066Z,23.51
2022-08-02T18:15:45.711Z,23.49
2022-08-02T18:18:12.431Z,23.50
2022-08-02T18:20:38.820Z,23.49
2022-08-02T18:23:06.221Z,23.48
2022-08-02T18:25:45.792Z,23.47
2022-08-02T18:28:13.317Z,23.46
2022-08-02T18:30:39.696Z,23.46
2022-08-02T18:33:58.140Z,23.44
2022-08-02T18:35:54.060Z,23.43
2022-08-02T18:38:22.286Z,23.43
2022-08-02T18:40:51.159Z,23.43
2022-08-02T18:43:39.327Z,23.42
2022-08-02T18:46:15.854Z,23.40
2022-08-02T18:48:46.922Z,23.40
2022-08-02T18:51:15.047Z,23.40
2022-08-02T18:53:42.858Z,23.38
2022-08-02T18:56:19.226Z,23.38
2022-08-02T18:58:50.698Z,23.37
2022-08-02T19:01:31.459Z,23.38
2022-08-02T19:03:59.445Z,23.37
2022-08-02T19:06:28.878Z,23.36
2022-08-02T19:09:05.622Z,23.35
2022-08-02T19:11:41.016Z,23.35
2022-08-02T19:14:07.499Z,23.34
2022-08-02T19:16:37.387Z,23.34
2022-08-02T19:19:05.090Z,23.33
2022-08-02T19:22:17.777Z,23.32
2022-08-02T19:24:17.936Z,23.32
2022-08-02T19:26:51.177Z,23.31
2022-08-02T19:32:41.214Z,23.30
2022-08-02T19:35:24.142Z,23.29
2022-08-02T19:37:52.881Z,23.29
2022-08-02T19:40:26.899Z,23.30
2022-08-02T19:44:24.504Z,23.28
2022-08-02T19:45:49.228Z,23.29
2022-08-02T19:48:17.962Z,23.26
2022-08-02T19:50:52.588Z,23.26
2022-08-02T19:53:18.999Z,23.26
2022-08-02T19:55:58.672Z,23.26
2022-08-02T19:58:29.092Z,23.25
2022-08-02T20:00:57.088Z,23.24
2022-08-02T20:03:50.788Z,23.24
2022-08-02T20:06:10.193Z,23.25
2022-08-02T20:08:38.822Z,23.23
2022-08-02T20:11:05.419Z,23.24
2022-08-02T20:13:47.606Z,23.22
2022-08-02T20:16:20.962Z,23.22
2022-08-02T20:18:52.879Z,23.22
2022-08-02T20:21:36.059Z,23.21
2022-08-02T20:24:04.642Z,23.22
2022-08-02T20:26:31.645Z,23.21
2022-08-02T20:29:02.758Z,23.20
2022-08-02T20:31:29.805Z,23.20
2022-08-02T20:33:56.864Z,23.18
2022-08-02T20:36:23.670Z,23.18
2022-08-02T20:38:50.225Z,23.19
2022-08-02T20:41:21.769Z,23.17
2022-08-02T20:43:48.723Z,23.17
2022-08-02T20:46:15.334Z,23.17
2022-08-02T20:48:41.715Z,23.17
2022-08-02T20:53:56.417Z,23.16
2022-08-02T20:56:23.261Z,23.15
2022-08-02T20:58:51.902Z,23.15
2022-08-02T21:01:21.185Z,23.15
2022-08-02T21:03:58.621Z,23.13
2022-08-02T21:09:12.973Z,23.13
2022-08-02T21:11:39.430Z,23.12
2022-08-02T21:14:18.799Z,23.12
2022-08-02T21:16:45.242Z,23.11
2022-08-02T21:19:12.330Z,23.12
2022-08-02T21:21:38.781Z,23.10
2022-08-02T21:24:05.309Z,23.10
2022-08-02T21:26:32.903Z,23.11
2022-08-02T21:29:03.067Z,23.10
2022-08-02T21:31:32.081Z,23.09
2022-08-02T21:34:02.835Z,23.09
2022-08-02T21:36:30.367Z,23.08
2022-08-02T21:38:58.593Z,23.09
2022-08-02T21:41:25.012Z,23.07
2022-08-02T21:44:06.889Z,23.07
2022-08-02T21:49:09.129Z,23.07
2022-08-02T21:51:35.578Z,23.06
2022-08-02T21:54:18.917Z,23.06
2022-08-02T21:56:50.175Z,23.06
2022-08-02T21:59:19.359Z,23.06
2022-08-02T22:01:53.849Z,23.04
2022-08-02T22:04:21.308Z,23.04
2022-08-02T22:06:48.981Z,23.05
2022-08-02T22:09:17.702Z,23.05
2022-08-02T22:11:44.535Z,23.04
2022-08-02T22:14:12.745Z,23.03
2022-08-02T22:16:39.233Z,23.04
2022-08-02T22:19:06.589Z,23.03
2022-08-02T22:24:19.716Z,23.02
2022-08-02T22:26:56.768Z,23.03
2022-08-02T22:29:23.272Z,23.02
2022-08-02T22:31:49.666Z,23.02
2022-08-02T22:34:37.240Z,23.00
2022-08-02T22:40:09.219Z,22.99
2022-08-02T22:42:35.690Z,22.99
2022-08-02T22:45:02.161Z,22.99
2022-08-02T22:47:28.565Z,22.98
2022-08-02T22:50:05.227Z,22.99
2022-08-02T22:52:38.185Z,22.98
2022-08-02T22:55:04.705Z,22.97
2022-08-02T22:57:32.968Z,22.97
2022-08-02T22:58:48.175Z,23.31
2022-08-02T22:59:04.668Z,23.02
2022-08-02T22:59:06.462Z,23.16
2022-08-02T22:59:12.689Z,23.13
2022-08-02T23:00:19.719Z,22.97
2022-08-02T23:02:46.083Z,22.97
2022-08-02T23:05:12.503Z,22.95
2022-08-02T23:07:39.553Z,22.96
2022-08-02T23:10:07.854Z,22.96
2022-08-02T23:12:34.603Z,22.95
2022-08-02T23:15:01.016Z,22.95
2022-08-02T23:17:46.122Z,22.95
2022-08-02T23:20:13.623Z,22.93
2022-08-02T23:22:40.023Z,22.94
2022-08-02T23:25:06.951Z,22.95
2022-08-02T23:27:33.501Z,22.93
2022-08-02T23:30:00.454Z,22.92
2022-08-02T23:32:27.053Z,22.92
2022-08-02T23:34:54.346Z,22.92
2022-08-02T23:37:20.716Z,22.92
2022-08-02T23:39:47.095Z,22.91
2022-08-02T23:42:13.924Z,22.92
2022-08-02T23:44:40.542Z,22.91
2022-08-02T23:47:06.995Z,22.90
2022-08-02T23:49:33.458Z,22.89
2022-08-02T23:52:01.951Z,22.89
2022-08-02T23:54:28.891Z,22.90
2022-08-02T23:56:55.734Z,22.89
2022-08-02T23:59:22.425Z,22.88
